sensor_id;sensor_type;location;lat;lon;timestamp;P1;durP1;ratioP1;P2;durP2;ratioP2
65018;SDS011;66069;51.164;-114.452;2023-06-10T00:01:08;2.53;;;1.30;;
65018;SDS011;66069;51.164;-114.452;2023-06-10T00:03:34;3.03;;;1.60;;
65018;SDS011;66069;51.164;-114.452;2023-06-10T00:06:01;2.80;;;1.52;;
65018;SDS011;66069;51.164;-114.452;2023-06-10T00:08:27;3.00;;;1.58;;
65018;SDS011;66069;51.164;-114.452;2023-06-10T00:10:56;2.67;;;1.40;;
65018;SDS011;66069;51.164;-114.452;2023-06-10T00:13:22;2.65;;;1.48;;
65018;SDS011;66069;51.164;-114.452;2023-06-10T00:15:48;2.75;;;1.20;;
65018;SDS011;66069;51.164;-114.452;2023-06-10T00:18:14;2.67;;;1.45;;
65018;SDS011;66069;51.164;-114.452;2023-06-10T00:20:40;2.42;;;1.33;;
65018;SDS011;66069;51.164;-114.452;2023-06-10T00:23:07;2.90;;;1.52;;
65018;SDS011;66069;51.164;-114.452;2023-06-10T00:25:34;2.70;;;1.55;;
65018;SDS011;66069;51.164;-114.452;2023-06-10T00:27:59;2.55;;;1.38;;
65018;SDS011;66069;51.164;-114.452;2023-06-10T00:30:25;2.63;;;1.42;;
65018;SDS011;66069;51.164;-114.452;2023-06-10T00:32:51;2.97;;;1.60;;
65018;SDS011;66069;51.164;-114.452;2023-06-10T00:35:17;3.20;;;1.80;;
65018;SDS011;66069;51.164;-114.452;2023-06-10T00:37:43;3.10;;;1.70;;
65018;SDS011;66069;51.164;-114.452;2023-06-10T00:40:09;2.60;;;1.38;;
65018;SDS011;66069;51.164;-114.452;2023-06-10T00:42:35;2.80;;;1.60;;
65018;SDS011;66069;51.164;-114.452;2023-06-10T00:45:01;3.00;;;1.70;;
65018;SDS011;66069;51.164;-114.452;2023-06-10T00:47:27;2.90;;;1.83;;
65018;SDS011;66069;51.164;-114.452;2023-06-10T00:49:53;2.90;;;1.60;;
65018;SDS011;66069;51.164;-114.452;2023-06-10T00:52:20;2.90;;;1.58;;
65018;SDS011;66069;51.164;-114.452;2023-06-10T00:54:47;2.72;;;1.63;;
65018;SDS011;66069;51.164;-114.452;2023-06-10T00:57:13;3.00;;;1.65;;
65018;SDS011;66069;51.164;-114.452;2023-06-10T00:59:44;3.45;;;1.83;;
65018;SDS011;66069;51.164;-114.452;2023-06-10T01:02:11;3.25;;;1.70;;
65018;SDS011;66069;51.164;-114.452;2023-06-10T01:04:37;3.22;;;2.00;;
65018;SDS011;66069;51.164;-114.452;2023-06-10T01:14:45;2.75;;;1.60;;
65018;SDS011;66069;51.164;-114.452;2023-06-10T01:17:11;3.13;;;1.80;;
65018;SDS011;66069;51.164;-114.452;2023-06-10T01:19:37;2.80;;;1.70;;
65018;SDS011;66069;51.164;-114.452;2023-06-10T01:22:03;3.03;;;1.75;;
65018;SDS011;66069;51.164;-114.452;2023-06-10T01:24:30;2.50;;;1.60;;
65018;SDS011;66069;51.164;-114.452;2023-06-10T01:27:00;2.92;;;1.60;;
65018;SDS011;66069;51.164;-114.452;2023-06-10T01:32:03;3.15;;;1.58;;
65018;SDS011;66069;51.164;-114.452;2023-06-10T01:34:30;2.70;;;1.65;;
65018;SDS011;66069;51.164;-114.452;2023-06-10T01:36:56;2.60;;;1.45;;
65018;SDS011;66069;51.164;-114.452;2023-06-10T01:39:24;2.92;;;1.67;;
65018;SDS011;66069;51.164;-114.452;2023-06-10T01:41:50;3.13;;;1.77;;
65018;SDS011;66069;51.164;-114.452;2023-06-10T01:44:18;2.97;;;1.70;;
65018;SDS011;66069;51.164;-114.452;2023-06-10T01:46:44;2.58;;;1.70;;
65018;SDS011;66069;51.164;-114.452;2023-06-10T01:49:10;3.05;;;1.70;;
65018;SDS011;66069;51.164;-114.452;2023-06-10T01:51:35;3.45;;;1.90;;
65018;SDS011;66069;51.164;-114.452;2023-06-10T01:54:01;2.95;;;1.73;;
65018;SDS011;66069;51.164;-114.452;2023-06-10T01:56:27;2.67;;;1.70;;
65018;SDS011;66069;51.164;-114.452;2023-06-10T01:58:53;3.08;;;1.70;;
65018;SDS011;66069;51.164;-114.452;2023-06-10T02:01:24;3.00;;;1.85;;
65018;SDS011;66069;51.164;-114.452;2023-06-10T02:03:53;2.78;;;1.80;;
65018;SDS011;66069;51.164;-114.452;2023-06-10T02:06:19;3.40;;;1.70;;
65018;SDS011;66069;51.164;-114.452;2023-06-10T02:08:45;3.15;;;2.05;;
65018;SDS011;66069;51.164;-114.452;2023-06-10T02:11:11;3.05;;;1.55;;
65018;SDS011;66069;51.164;-114.452;2023-06-10T02:13:38;3.55;;;1.95;;
65018;SDS011;66069;51.164;-114.452;2023-06-10T02:16:03;3.00;;;1.83;;
65018;SDS011;66069;51.164;-114.452;2023-06-10T02:18:31;3.33;;;1.90;;
65018;SDS011;66069;51.164;-114.452;2023-06-10T02:20:56;3.00;;;1.75;;
65018;SDS011;66069;51.164;-114.452;2023-06-10T02:23:22;3.05;;;1.63;;
65018;SDS011;66069;51.164;-114.452;2023-06-10T02:25:48;2.90;;;1.70;;
65018;SDS011;66069;51.164;-114.452;2023-06-10T02:28:14;3.92;;;1.80;;
65018;SDS011;66069;51.164;-114.452;2023-06-10T02:30:40;3.55;;;1.77;;
65018;SDS011;66069;51.164;-114.452;2023-06-10T02:33:07;3.67;;;2.00;;
65018;SDS011;66069;51.164;-114.452;2023-06-10T02:35:35;3.22;;;1.70;;
65018;SDS011;66069;51.164;-114.452;2023-06-10T02:38:02;3.20;;;1.65;;
65018;SDS011;66069;51.164;-114.452;2023-06-10T02:40:28;3.17;;;1.90;;
65018;SDS011;66069;51.164;-114.452;2023-06-10T02:42:54;2.78;;;1.73;;
65018;SDS011;66069;51.164;-114.452;2023-06-10T02:45:20;3.67;;;2.00;;
65018;SDS011;66069;51.164;-114.452;2023-06-10T02:47:45;3.45;;;2.20;;
65018;SDS011;66069;51.164;-114.452;2023-06-10T02:50:11;3.38;;;1.95;;
65018;SDS011;66069;51.164;-114.452;2023-06-10T02:52:37;4.63;;;1.77;;
65018;SDS011;66069;51.164;-114.452;2023-06-10T02:55:03;2.83;;;1.55;;
65018;SDS011;66069;51.164;-114.452;2023-06-10T02:57:30;3.78;;;2.05;;
65018;SDS011;66069;51.164;-114.452;2023-06-10T02:59:56;3.40;;;2.00;;
65018;SDS011;66069;51.164;-114.452;2023-06-10T03:02:24;2.90;;;1.58;;
65018;SDS011;66069;51.164;-114.452;2023-06-10T03:04:56;2.78;;;1.50;;
65018;SDS011;66069;51.164;-114.452;2023-06-10T03:07:22;3.85;;;1.80;;
65018;SDS011;66069;51.164;-114.452;2023-06-10T03:09:48;3.33;;;1.80;;
65018;SDS011;66069;51.164;-114.452;2023-06-10T03:12:15;3.83;;;1.90;;
65018;SDS011;66069;51.164;-114.452;2023-06-10T03:14:41;3.15;;;1.73;;
65018;SDS011;66069;51.164;-114.452;2023-06-10T03:17:07;2.92;;;1.92;;
65018;SDS011;66069;51.164;-114.452;2023-06-10T03:19:34;3.88;;;1.98;;
65018;SDS011;66069;51.164;-114.452;2023-06-10T03:22:12;4.15;;;1.90;;
65018;SDS011;66069;51.164;-114.452;2023-06-10T03:24:38;3.20;;;2.05;;
65018;SDS011;66069;51.164;-114.452;2023-06-10T03:27:14;3.28;;;1.73;;
65018;SDS011;66069;51.164;-114.452;2023-06-10T03:29:43;3.78;;;2.05;;
65018;SDS011;66069;51.164;-114.452;2023-06-10T03:32:09;3.30;;;1.80;;
65018;SDS011;66069;51.164;-114.452;2023-06-10T03:34:35;2.90;;;1.70;;
65018;SDS011;66069;51.164;-114.452;2023-06-10T03:37:01;3.03;;;1.73;;
65018;SDS011;66069;51.164;-114.452;2023-06-10T03:39:28;3.30;;;1.92;;
65018;SDS011;66069;51.164;-114.452;2023-06-10T03:41:56;2.45;;;1.40;;
65018;SDS011;66069;51.164;-114.452;2023-06-10T03:44:23;3.45;;;1.83;;
65018;SDS011;66069;51.164;-114.452;2023-06-10T03:46:49;4.53;;;2.30;;
65018;SDS011;66069;51.164;-114.452;2023-06-10T03:49:15;4.15;;;2.13;;
65018;SDS011;66069;51.164;-114.452;2023-06-10T03:51:42;3.03;;;1.90;;
65018;SDS011;66069;51.164;-114.452;2023-06-10T03:54:08;3.42;;;2.03;;
65018;SDS011;66069;51.164;-114.452;2023-06-10T03:56:34;2.92;;;1.75;;
65018;SDS011;66069;51.164;-114.452;2023-06-10T03:59:00;3.22;;;1.83;;
65018;SDS011;66069;51.164;-114.452;2023-06-10T04:01:26;3.08;;;1.80;;
65018;SDS011;66069;51.164;-114.452;2023-06-10T04:03:53;3.78;;;1.92;;
65018;SDS011;66069;51.164;-114.452;2023-06-10T04:06:19;4.22;;;2.25;;
65018;SDS011;66069;51.164;-114.452;2023-06-10T04:08:46;4.55;;;1.63;;
65018;SDS011;66069;51.164;-114.452;2023-06-10T04:11:12;3.22;;;1.70;;
65018;SDS011;66069;51.164;-114.452;2023-06-10T04:13:38;3.40;;;1.98;;
65018;SDS011;66069;51.164;-114.452;2023-06-10T04:16:04;4.18;;;2.00;;
65018;SDS011;66069;51.164;-114.452;2023-06-10T04:18:30;2.90;;;1.63;;
65018;SDS011;66069;51.164;-114.452;2023-06-10T04:20:56;3.25;;;1.50;;
65018;SDS011;66069;51.164;-114.452;2023-06-10T04:23:22;3.72;;;1.75;;
65018;SDS011;66069;51.164;-114.452;2023-06-10T04:25:48;2.67;;;1.83;;
65018;SDS011;66069;51.164;-114.452;2023-06-10T04:28:14;3.30;;;1.90;;
65018;SDS011;66069;51.164;-114.452;2023-06-10T04:30:39;3.20;;;1.80;;
65018;SDS011;66069;51.164;-114.452;2023-06-10T04:33:07;3.67;;;1.98;;
65018;SDS011;66069;51.164;-114.452;2023-06-10T04:35:34;3.15;;;1.70;;
65018;SDS011;66069;51.164;-114.452;2023-06-10T04:38:00;3.60;;;2.08;;
65018;SDS011;66069;51.164;-114.452;2023-06-10T04:40:28;3.50;;;2.10;;
65018;SDS011;66069;51.164;-114.452;2023-06-10T04:42:53;3.30;;;1.90;;
65018;SDS011;66069;51.164;-114.452;2023-06-10T04:45:19;3.00;;;1.90;;
65018;SDS011;66069;51.164;-114.452;2023-06-10T04:47:45;3.58;;;2.03;;
65018;SDS011;66069;51.164;-114.452;2023-06-10T04:50:11;3.38;;;1.70;;
65018;SDS011;66069;51.164;-114.452;2023-06-10T04:52:37;3.38;;;1.95;;
65018;SDS011;66069;51.164;-114.452;2023-06-10T04:55:03;3.00;;;1.90;;
65018;SDS011;66069;51.164;-114.452;2023-06-10T04:57:29;4.43;;;2.20;;
65018;SDS011;66069;51.164;-114.452;2023-06-10T04:59:55;3.33;;;1.90;;
65018;SDS011;66069;51.164;-114.452;2023-06-10T05:02:21;4.03;;;2.42;;
65018;SDS011;66069;51.164;-114.452;2023-06-10T05:04:46;3.22;;;2.15;;
65018;SDS011;66069;51.164;-114.452;2023-06-10T05:07:12;3.10;;;2.00;;
65018;SDS011;66069;51.164;-114.452;2023-06-10T05:09:38;3.38;;;1.83;;
65018;SDS011;66069;51.164;-114.452;2023-06-10T05:12:04;3.72;;;2.00;;
65018;SDS011;66069;51.164;-114.452;2023-06-10T05:14:30;3.35;;;1.90;;
65018;SDS011;66069;51.164;-114.452;2023-06-10T05:16:56;3.63;;;2.00;;
65018;SDS011;66069;51.164;-114.452;2023-06-10T05:19:22;4.05;;;2.13;;
65018;SDS011;66069;51.164;-114.452;2023-06-10T05:21:48;3.13;;;1.80;;
65018;SDS011;66069;51.164;-114.452;2023-06-10T05:24:14;2.92;;;1.88;;
65018;SDS011;66069;51.164;-114.452;2023-06-10T05:26:40;3.42;;;2.10;;
65018;SDS011;66069;51.164;-114.452;2023-06-10T05:29:07;3.85;;;2.40;;
65018;SDS011;66069;51.164;-114.452;2023-06-10T05:31:34;3.13;;;2.03;;
65018;SDS011;66069;51.164;-114.452;2023-06-10T05:34:00;2.67;;;1.65;;
65018;SDS011;66069;51.164;-114.452;2023-06-10T05:36:26;3.45;;;2.25;;
65018;SDS011;66069;51.164;-114.452;2023-06-10T05:38:52;3.22;;;1.90;;
65018;SDS011;66069;51.164;-114.452;2023-06-10T05:41:18;3.50;;;1.85;;
65018;SDS011;66069;51.164;-114.452;2023-06-10T05:43:44;3.85;;;1.80;;
65018;SDS011;66069;51.164;-114.452;2023-06-10T05:46:10;3.58;;;1.90;;
65018;SDS011;66069;51.164;-114.452;2023-06-10T05:48:36;3.20;;;1.98;;
65018;SDS011;66069;51.164;-114.452;2023-06-10T05:51:01;3.28;;;1.90;;
65018;SDS011;66069;51.164;-114.452;2023-06-10T05:53:27;3.70;;;2.00;;
65018;SDS011;66069;51.164;-114.452;2023-06-10T05:55:53;3.03;;;1.65;;
65018;SDS011;66069;51.164;-114.452;2023-06-10T05:58:22;3.42;;;1.90;;
65018;SDS011;66069;51.164;-114.452;2023-06-10T06:00:48;3.30;;;1.90;;
65018;SDS011;66069;51.164;-114.452;2023-06-10T06:03:14;3.72;;;2.17;;
65018;SDS011;66069;51.164;-114.452;2023-06-10T06:05:40;3.78;;;1.92;;
65018;SDS011;66069;51.164;-114.452;2023-06-10T06:08:06;2.97;;;1.70;;
65018;SDS011;66069;51.164;-114.452;2023-06-10T06:10:32;2.85;;;1.67;;
65018;SDS011;66069;51.164;-114.452;2023-06-10T06:12:59;3.70;;;2.30;;
65018;SDS011;66069;51.164;-114.452;2023-06-10T06:15:25;3.53;;;2.17;;
65018;SDS011;66069;51.164;-114.452;2023-06-10T06:17:51;3.53;;;2.20;;
65018;SDS011;66069;51.164;-114.452;2023-06-10T06:20:21;3.28;;;1.80;;
65018;SDS011;66069;51.164;-114.452;2023-06-10T06:22:47;3.40;;;2.03;;
65018;SDS011;66069;51.164;-114.452;2023-06-10T06:25:13;3.33;;;2.05;;
65018;SDS011;66069;51.164;-114.452;2023-06-10T06:27:40;2.85;;;1.80;;
65018;SDS011;66069;51.164;-114.452;2023-06-10T06:30:06;3.53;;;2.25;;
65018;SDS011;66069;51.164;-114.452;2023-06-10T06:32:32;4.05;;;2.20;;
65018;SDS011;66069;51.164;-114.452;2023-06-10T06:34:57;3.80;;;2.15;;
65018;SDS011;66069;51.164;-114.452;2023-06-10T06:37:24;4.00;;;2.00;;
65018;SDS011;66069;51.164;-114.452;2023-06-10T06:39:50;3.65;;;1.92;;
65018;SDS011;66069;51.164;-114.452;2023-06-10T06:42:17;3.70;;;2.00;;
65018;SDS011;66069;51.164;-114.452;2023-06-10T06:44:42;3.38;;;1.80;;
65018;SDS011;66069;51.164;-114.452;2023-06-10T06:47:08;4.05;;;2.13;;
65018;SDS011;66069;51.164;-114.452;2023-06-10T06:49:34;3.60;;;1.88;;
65018;SDS011;66069;51.164;-114.452;2023-06-10T06:52:01;3.50;;;1.80;;
65018;SDS011;66069;51.164;-114.452;2023-06-10T06:54:27;3.70;;;2.00;;
65018;SDS011;66069;51.164;-114.452;2023-06-10T06:56:53;2.97;;;1.70;;
65018;SDS011;66069;51.164;-114.452;2023-06-10T06:59:19;3.75;;;2.35;;
65018;SDS011;66069;51.164;-114.452;2023-06-10T07:01:45;3.97;;;2.10;;
65018;SDS011;66069;51.164;-114.452;2023-06-10T07:04:11;3.45;;;2.38;;
65018;SDS011;66069;51.164;-114.452;2023-06-10T07:06:37;3.72;;;2.13;;
65018;SDS011;66069;51.164;-114.452;2023-06-10T07:09:03;3.92;;;2.13;;
65018;SDS011;66069;51.164;-114.452;2023-06-10T07:11:30;3.20;;;1.90;;
65018;SDS011;66069;51.164;-114.452;2023-06-10T07:13:59;3.60;;;2.10;;
65018;SDS011;66069;51.164;-114.452;2023-06-10T07:16:24;3.50;;;2.10;;
65018;SDS011;66069;51.164;-114.452;2023-06-10T07:18:52;3.47;;;1.95;;
65018;SDS011;66069;51.164;-114.452;2023-06-10T07:21:17;3.20;;;2.00;;
65018;SDS011;66069;51.164;-114.452;2023-06-10T07:23:43;3.50;;;2.10;;
65018;SDS011;66069;51.164;-114.452;2023-06-10T07:26:10;3.75;;;2.05;;
65018;SDS011;66069;51.164;-114.452;2023-06-10T07:28:36;3.53;;;2.20;;
65018;SDS011;66069;51.164;-114.452;2023-06-10T07:31:03;3.60;;;2.10;;
65018;SDS011;66069;51.164;-114.452;2023-06-10T07:33:29;3.63;;;2.22;;
65018;SDS011;66069;51.164;-114.452;2023-06-10T07:35:54;3.75;;;1.98;;
65018;SDS011;66069;51.164;-114.452;2023-06-10T07:38:24;3.55;;;2.20;;
65018;SDS011;66069;51.164;-114.452;2023-06-10T07:40:50;5.28;;;2.33;;
65018;SDS011;66069;51.164;-114.452;2023-06-10T07:43:15;3.13;;;2.00;;
65018;SDS011;66069;51.164;-114.452;2023-06-10T07:45:41;3.45;;;2.17;;
65018;SDS011;66069;51.164;-114.452;2023-06-10T07:48:08;3.65;;;2.15;;
65018;SDS011;66069;51.164;-114.452;2023-06-10T07:50:33;3.38;;;2.05;;
65018;SDS011;66069;51.164;-114.452;2023-06-10T07:52:59;3.88;;;2.10;;
65018;SDS011;66069;51.164;-114.452;2023-06-10T07:55:25;3.38;;;2.08;;
65018;SDS011;66069;51.164;-114.452;2023-06-10T07:57:52;3.58;;;1.88;;
65018;SDS011;66069;51.164;-114.452;2023-06-10T08:00:18;3.80;;;2.15;;
65018;SDS011;66069;51.164;-114.452;2023-06-10T08:02:44;4.30;;;2.53;;
65018;SDS011;66069;51.164;-114.452;2023-06-10T08:05:10;3.63;;;2.40;;
65018;SDS011;66069;51.164;-114.452;2023-06-10T08:07:36;3.45;;;1.92;;
65018;SDS011;66069;51.164;-114.452;2023-06-10T08:10:02;3.40;;;1.88;;
65018;SDS011;66069;51.164;-114.452;2023-06-10T08:12:29;3.50;;;2.15;;
65018;SDS011;66069;51.164;-114.452;2023-06-10T08:14:55;3.97;;;2.38;;
65018;SDS011;66069;51.164;-114.452;2023-06-10T08:17:21;4.25;;;2.30;;
65018;SDS011;66069;51.164;-114.452;2023-06-10T08:19:47;3.33;;;2.20;;
65018;SDS011;66069;51.164;-114.452;2023-06-10T08:22:13;3.42;;;1.90;;
65018;SDS011;66069;51.164;-114.452;2023-06-10T08:24:40;3.03;;;1.80;;
65018;SDS011;66069;51.164;-114.452;2023-06-10T08:27:05;3.28;;;2.00;;
65018;SDS011;66069;51.164;-114.452;2023-06-10T08:29:31;3.55;;;1.98;;
65018;SDS011;66069;51.164;-114.452;2023-06-10T08:31:57;3.15;;;1.85;;
65018;SDS011;66069;51.164;-114.452;2023-06-10T08:34:23;3.90;;;2.10;;
65018;SDS011;66069;51.164;-114.452;2023-06-10T08:36:49;3.60;;;2.25;;
65018;SDS011;66069;51.164;-114.452;2023-06-10T08:39:20;3.88;;;2.15;;
65018;SDS011;66069;51.164;-114.452;2023-06-10T08:42:11;3.40;;;2.10;;
65018;SDS011;66069;51.164;-114.452;2023-06-10T08:44:33;3.70;;;2.30;;
65018;SDS011;66069;51.164;-114.452;2023-06-10T08:47:04;3.42;;;1.92;;
65018;SDS011;66069;51.164;-114.452;2023-06-10T08:49:34;3.45;;;2.15;;
65018;SDS011;66069;51.164;-114.452;2023-06-10T08:52:04;3.75;;;2.05;;
65018;SDS011;66069;51.164;-114.452;2023-06-10T08:54:31;3.13;;;1.80;;
65018;SDS011;66069;51.164;-114.452;2023-06-10T08:57:00;3.55;;;2.20;;
65018;SDS011;66069;51.164;-114.452;2023-06-10T08:59:28;3.58;;;2.03;;
65018;SDS011;66069;51.164;-114.452;2023-06-10T09:01:54;3.40;;;1.85;;
65018;SDS011;66069;51.164;-114.452;2023-06-10T09:04:20;3.60;;;2.35;;
65018;SDS011;66069;51.164;-114.452;2023-06-10T09:06:46;4.47;;;2.33;;
65018;SDS011;66069;51.164;-114.452;2023-06-10T09:09:12;3.80;;;2.00;;
65018;SDS011;66069;51.164;-114.452;2023-06-10T09:11:39;3.65;;;1.90;;
65018;SDS011;66069;51.164;-114.452;2023-06-10T09:14:05;3.58;;;2.20;;
65018;SDS011;66069;51.164;-114.452;2023-06-10T09:16:34;4.50;;;2.40;;
65018;SDS011;66069;51.164;-114.452;2023-06-10T09:18:59;4.22;;;2.20;;
65018;SDS011;66069;51.164;-114.452;2023-06-10T09:21:25;4.18;;;2.58;;
65018;SDS011;66069;51.164;-114.452;2023-06-10T09:23:51;3.58;;;2.38;;
65018;SDS011;66069;51.164;-114.452;2023-06-10T09:26:17;3.55;;;1.88;;
65018;SDS011;66069;51.164;-114.452;2023-06-10T09:28:44;3.28;;;2.00;;
65018;SDS011;66069;51.164;-114.452;2023-06-10T09:31:11;4.35;;;2.30;;
65018;SDS011;66069;51.164;-114.452;2023-06-10T09:33:38;4.13;;;2.17;;
65018;SDS011;66069;51.164;-114.452;2023-06-10T09:36:07;3.87;;;2.20;;
65018;SDS011;66069;51.164;-114.452;2023-06-10T09:38:33;4.00;;;2.20;;
65018;SDS011;66069;51.164;-114.452;2023-06-10T09:40:59;4.15;;;2.30;;
65018;SDS011;66069;51.164;-114.452;2023-06-10T09:44:01;3.60;;;2.20;;
65018;SDS011;66069;51.164;-114.452;2023-06-10T09:46:20;3.80;;;2.30;;
65018;SDS011;66069;51.164;-114.452;2023-06-10T09:48:46;3.67;;;2.28;;
65018;SDS011;66069;51.164;-114.452;2023-06-10T09:51:13;4.18;;;2.20;;
65018;SDS011;66069;51.164;-114.452;2023-06-10T09:53:39;4.30;;;2.60;;
65018;SDS011;66069;51.164;-114.452;2023-06-10T09:56:05;3.58;;;2.30;;
65018;SDS011;66069;51.164;-114.452;2023-06-10T09:58:38;4.30;;;2.30;;
65018;SDS011;66069;51.164;-114.452;2023-06-10T10:01:10;4.57;;;2.75;;
65018;SDS011;66069;51.164;-114.452;2023-06-10T10:03:45;4.22;;;2.40;;
65018;SDS011;66069;51.164;-114.452;2023-06-10T10:06:12;3.13;;;2.00;;
65018;SDS011;66069;51.164;-114.452;2023-06-10T10:08:38;3.88;;;2.10;;
65018;SDS011;66069;51.164;-114.452;2023-06-10T10:11:04;4.18;;;2.40;;
65018;SDS011;66069;51.164;-114.452;2023-06-10T10:13:30;4.18;;;2.28;;
65018;SDS011;66069;51.164;-114.452;2023-06-10T10:15:58;3.80;;;2.33;;
65018;SDS011;66069;51.164;-114.452;2023-06-10T10:18:25;3.45;;;1.95;;
65018;SDS011;66069;51.164;-114.452;2023-06-10T10:20:55;3.28;;;2.03;;
65018;SDS011;66069;51.164;-114.452;2023-06-10T10:23:26;3.92;;;2.30;;
65018;SDS011;66069;51.164;-114.452;2023-06-10T10:25:55;3.58;;;2.38;;
65018;SDS011;66069;51.164;-114.452;2023-06-10T10:28:24;3.95;;;2.42;;
65018;SDS011;66069;51.164;-114.452;2023-06-10T10:30:53;4.03;;;2.30;;
65018;SDS011;66069;51.164;-114.452;2023-06-10T10:33:20;3.70;;;2.22;;
65018;SDS011;66069;51.164;-114.452;2023-06-10T10:35:48;3.90;;;2.55;;
65018;SDS011;66069;51.164;-114.452;2023-06-10T10:38:15;3.95;;;2.35;;
65018;SDS011;66069;51.164;-114.452;2023-06-10T10:40:41;3.55;;;2.10;;
65018;SDS011;66069;51.164;-114.452;2023-06-10T10:43:07;3.45;;;2.25;;
65018;SDS011;66069;51.164;-114.452;2023-06-10T10:45:34;4.35;;;2.50;;
65018;SDS011;66069;51.164;-114.452;2023-06-10T10:48:04;3.72;;;2.17;;
65018;SDS011;66069;51.164;-114.452;2023-06-10T10:52:59;3.42;;;2.10;;
65018;SDS011;66069;51.164;-114.452;2023-06-10T10:55:25;3.40;;;2.00;;
65018;SDS011;66069;51.164;-114.452;2023-06-10T11:00:30;3.80;;;2.20;;
65018;SDS011;66069;51.164;-114.452;2023-06-10T11:02:59;4.00;;;2.10;;
65018;SDS011;66069;51.164;-114.452;2023-06-10T11:05:40;4.35;;;2.20;;
65018;SDS011;66069;51.164;-114.452;2023-06-10T11:08:07;4.10;;;2.30;;
65018;SDS011;66069;51.164;-114.452;2023-06-10T11:10:54;3.85;;;2.47;;
65018;SDS011;66069;51.164;-114.452;2023-06-10T11:13:20;3.83;;;2.40;;
65018;SDS011;66069;51.164;-114.452;2023-06-10T11:15:47;4.43;;;2.50;;
65018;SDS011;66069;51.164;-114.452;2023-06-10T11:18:14;3.83;;;2.33;;
65018;SDS011;66069;51.164;-114.452;2023-06-10T11:28:37;4.57;;;2.58;;
65018;SDS011;66069;51.164;-114.452;2023-06-10T11:31:03;4.50;;;2.60;;
65018;SDS011;66069;51.164;-114.452;2023-06-10T11:33:29;4.10;;;2.38;;
65018;SDS011;66069;51.164;-114.452;2023-06-10T11:35:56;4.07;;;2.28;;
65018;SDS011;66069;51.164;-114.452;2023-06-10T11:38:22;3.47;;;2.25;;
65018;SDS011;66069;51.164;-114.452;2023-06-10T11:40:48;3.50;;;2.03;;
65018;SDS011;66069;51.164;-114.452;2023-06-10T11:43:15;3.78;;;2.40;;
65018;SDS011;66069;51.164;-114.452;2023-06-10T11:45:42;4.78;;;3.00;;
65018;SDS011;66069;51.164;-114.452;2023-06-10T11:48:09;4.30;;;2.70;;
65018;SDS011;66069;51.164;-114.452;2023-06-10T11:50:35;3.97;;;2.45;;
65018;SDS011;66069;51.164;-114.452;2023-06-10T11:53:02;4.32;;;2.33;;
65018;SDS011;66069;51.164;-114.452;2023-06-10T11:58:12;3.67;;;2.20;;
65018;SDS011;66069;51.164;-114.452;2023-06-10T12:00:43;4.22;;;2.55;;
65018;SDS011;66069;51.164;-114.452;2023-06-10T12:03:09;4.05;;;2.50;;
65018;SDS011;66069;51.164;-114.452;2023-06-10T12:05:35;3.97;;;2.42;;
65018;SDS011;66069;51.164;-114.452;2023-06-10T12:08:10;3.72;;;2.53;;
65018;SDS011;66069;51.164;-114.452;2023-06-10T12:10:43;4.43;;;2.45;;
65018;SDS011;66069;51.164;-114.452;2023-06-10T12:13:09;3.80;;;2.58;;
65018;SDS011;66069;51.164;-114.452;2023-06-10T12:15:34;5.40;;;3.00;;
65018;SDS011;66069;51.164;-114.452;2023-06-10T12:18:01;4.32;;;2.65;;
65018;SDS011;66069;51.164;-114.452;2023-06-10T12:20:28;5.53;;;2.90;;
65018;SDS011;66069;51.164;-114.452;2023-06-10T12:22:55;4.70;;;2.70;;
65018;SDS011;66069;51.164;-114.452;2023-06-10T12:25:27;3.78;;;2.15;;
65018;SDS011;66069;51.164;-114.452;2023-06-10T12:27:54;4.50;;;2.30;;
65018;SDS011;66069;51.164;-114.452;2023-06-10T12:30:20;4.25;;;2.65;;
65018;SDS011;66069;51.164;-114.452;2023-06-10T12:32:46;3.92;;;2.00;;
65018;SDS011;66069;51.164;-114.452;2023-06-10T12:35:14;4.78;;;2.50;;
65018;SDS011;66069;51.164;-114.452;2023-06-10T12:37:40;3.78;;;2.40;;
65018;SDS011;66069;51.164;-114.452;2023-06-10T12:40:06;3.67;;;2.25;;
65018;SDS011;66069;51.164;-114.452;2023-06-10T12:42:33;3.53;;;2.17;;
65018;SDS011;66069;51.164;-114.452;2023-06-10T12:45:01;4.68;;;2.53;;
65018;SDS011;66069;51.164;-114.452;2023-06-10T12:47:30;4.43;;;2.65;;
65018;SDS011;66069;51.164;-114.452;2023-06-10T12:49:58;4.30;;;2.60;;
65018;SDS011;66069;51.164;-114.452;2023-06-10T12:52:24;4.07;;;2.63;;
65018;SDS011;66069;51.164;-114.452;2023-06-10T12:54:51;4.18;;;2.25;;
65018;SDS011;66069;51.164;-114.452;2023-06-10T12:57:17;4.30;;;2.55;;
65018;SDS011;66069;51.164;-114.452;2023-06-10T12:59:43;3.72;;;2.38;;
65018;SDS011;66069;51.164;-114.452;2023-06-10T13:02:15;4.53;;;2.70;;
65018;SDS011;66069;51.164;-114.452;2023-06-10T13:04:43;4.07;;;2.38;;
65018;SDS011;66069;51.164;-114.452;2023-06-10T13:07:09;4.07;;;2.45;;
65018;SDS011;66069;51.164;-114.452;2023-06-10T13:09:36;4.63;;;2.78;;
65018;SDS011;66069;51.164;-114.452;2023-06-10T13:12:02;3.42;;;2.30;;
65018;SDS011;66069;51.164;-114.452;2023-06-10T13:14:28;4.00;;;2.47;;
65018;SDS011;66069;51.164;-114.452;2023-06-10T13:16:54;4.28;;;2.65;;
65018;SDS011;66069;51.164;-114.452;2023-06-10T13:19:20;4.93;;;2.90;;
65018;SDS011;66069;51.164;-114.452;2023-06-10T13:21:49;4.22;;;2.58;;
65018;SDS011;66069;51.164;-114.452;2023-06-10T13:24:15;3.70;;;2.33;;
65018;SDS011;66069;51.164;-114.452;2023-06-10T13:26:41;3.78;;;2.25;;
65018;SDS011;66069;51.164;-114.452;2023-06-10T13:29:06;4.47;;;2.70;;
65018;SDS011;66069;51.164;-114.452;2023-06-10T13:31:41;4.63;;;2.75;;
65018;SDS011;66069;51.164;-114.452;2023-06-10T13:34:07;3.58;;;2.35;;
65018;SDS011;66069;51.164;-114.452;2023-06-10T13:36:33;4.28;;;2.60;;
65018;SDS011;66069;51.164;-114.452;2023-06-10T13:38:59;4.93;;;3.00;;
65018;SDS011;66069;51.164;-114.452;2023-06-10T13:41:25;3.95;;;2.45;;
65018;SDS011;66069;51.164;-114.452;2023-06-10T13:43:54;4.55;;;2.70;;
65018;SDS011;66069;51.164;-114.452;2023-06-10T13:46:20;4.20;;;2.50;;
65018;SDS011;66069;51.164;-114.452;2023-06-10T13:48:47;4.85;;;3.00;;
65018;SDS011;66069;51.164;-114.452;2023-06-10T13:51:12;4.05;;;2.20;;
65018;SDS011;66069;51.164;-114.452;2023-06-10T13:53:38;4.05;;;2.38;;
65018;SDS011;66069;51.164;-114.452;2023-06-10T13:56:04;4.15;;;2.50;;
65018;SDS011;66069;51.164;-114.452;2023-06-10T13:58:30;3.72;;;2.53;;
65018;SDS011;66069;51.164;-114.452;2023-06-10T14:00:57;4.78;;;3.03;;
65018;SDS011;66069;51.164;-114.452;2023-06-10T14:03:23;4.88;;;2.78;;
65018;SDS011;66069;51.164;-114.452;2023-06-10T14:05:50;4.20;;;2.67;;
65018;SDS011;66069;51.164;-114.452;2023-06-10T14:08:15;4.57;;;2.60;;
65018;SDS011;66069;51.164;-114.452;2023-06-10T14:10:42;3.50;;;2.30;;
65018;SDS011;66069;51.164;-114.452;2023-06-10T14:13:08;4.30;;;2.70;;
65018;SDS011;66069;51.164;-114.452;2023-06-10T14:15:34;4.18;;;2.55;;
65018;SDS011;66069;51.164;-114.452;2023-06-10T14:18:00;4.13;;;2.50;;
65018;SDS011;66069;51.164;-114.452;2023-06-10T14:20:26;3.83;;;2.55;;
65018;SDS011;66069;51.164;-114.452;2023-06-10T14:22:56;5.13;;;3.25;;
65018;SDS011;66069;51.164;-114.452;2023-06-10T14:25:22;4.22;;;2.58;;
65018;SDS011;66069;51.164;-114.452;2023-06-10T14:27:48;4.45;;;2.78;;
65018;SDS011;66069;51.164;-114.452;2023-06-10T14:30:14;4.13;;;2.60;;
65018;SDS011;66069;51.164;-114.452;2023-06-10T14:32:40;4.20;;;2.45;;